createdAt,value
2018-09-10T00:00:36.845Z,16.77
2018-09-10T00:01:37.539Z,16.66
2018-09-10T00:02:37.953Z,16.74
2018-09-10T00:03:38.377Z,16.61
2018-09-10T00:04:38.792Z,16.59
2018-09-10T00:05:39.761Z,16.57
2018-09-10T00:06:40.454Z,16.59
2018-09-10T00:07:41.144Z,16.57
2018-09-10T00:08:42.110Z,16.58
2018-09-10T00:09:41.823Z,16.54
2018-09-10T00:10:42.237Z,16.54
2018-09-10T00:11:42.927Z,16.54
2018-09-10T00:12:43.619Z,16.5
2018-09-10T00:13:44.033Z,16.55
2018-09-10T00:14:44.723Z,16.54
2018-09-10T00:15:45.693Z,16.47
2018-09-10T00:16:46.109Z,16.54
2018-09-10T00:17:46.245Z,16.49
2018-09-10T00:18:46.935Z,16.51
2018-09-10T00:19:47.196Z,16.57
2018-09-10T00:20:47.331Z,16.59
2018-09-10T00:21:47.744Z,16.61
2018-09-10T00:22:47.877Z,16.72
2018-09-10T00:23:48.289Z,16.66
2018-09-10T00:24:48.431Z,16.65
2018-09-10T00:25:48.837Z,16.69
2018-09-10T00:26:48.973Z,16.69
2018-09-10T00:27:49.384Z,16.72
2018-09-10T00:28:49.798Z,16.68
2018-09-10T00:29:50.063Z,16.76
2018-09-10T00:30:50.479Z,16.79
2018-09-10T00:31:50.890Z,16.73
2018-09-10T00:32:51.581Z,16.72
2018-09-10T00:33:52.274Z,16.69
2018-09-10T00:34:53.241Z,16.74
2018-09-10T00:35:53.931Z,16.76
2018-09-10T00:36:54.342Z,16.77
2018-09-10T00:37:55.033Z,16.66
2018-09-10T00:38:55.724Z,16.62
2018-09-10T00:39:55.993Z,16.69
2018-09-10T00:40:56.122Z,16.68
2018-09-10T00:41:56.258Z,16.68
2018-09-10T00:42:57.229Z,16.58
2018-09-10T00:43:57.643Z,16.62
2018-09-10T00:44:58.057Z,16.65
2018-09-10T00:45:58.745Z,16.51
2018-09-10T00:46:59.165Z,16.59
2018-09-10T00:47:59.417Z,16.59
2018-09-10T00:49:00.106Z,16.61
2018-09-10T00:50:00.368Z,16.59
2018-09-10T00:51:00.499Z,16.73
2018-09-10T00:52:00.915Z,16.55
2018-09-10T00:53:01.323Z,16.61
2018-09-10T00:54:01.465Z,16.66
2018-09-10T00:55:01.875Z,16.61
2018-09-10T00:56:02.288Z,16.61
2018-09-10T00:57:02.979Z,16.59
2018-09-10T00:58:03.389Z,16.66
2018-09-10T00:59:04.109Z,16.59
2018-09-10T01:00:03.817Z,16.61
2018-09-10T01:01:04.506Z,16.54
2018-09-10T01:02:04.639Z,16.57
2018-09-10T01:03:05.608Z,16.58
2018-09-10T01:04:06.179Z,16.54
2018-09-10T01:05:06.436Z,16.58
2018-09-10T01:06:06.568Z,16.61
2018-09-10T01:07:07.538Z,16.59
2018-09-10T01:08:07.953Z,16.64
2018-09-10T01:09:08.919Z,16.59
2018-09-10T01:10:08.903Z,16.62
2018-09-10T01:11:09.319Z,16.54
2018-09-10T01:12:10.285Z,16.54
2018-09-10T01:13:10.423Z,16.57
2018-09-10T01:14:10.555Z,16.59
2018-09-10T01:15:10.970Z,16.54
2018-09-10T01:16:11.391Z,16.5
2018-09-10T01:17:12.353Z,16.47
2018-09-10T01:18:12.490Z,16.43
2018-09-10T01:19:12.626Z,16.43
2018-09-10T01:20:13.726Z,16.34
2018-09-10T01:21:13.863Z,16.34
2018-09-10T01:22:14.276Z,16.39
2018-09-10T01:23:14.967Z,16.37
2018-09-10T01:24:15.379Z,16.39
2018-09-10T01:25:15.793Z,16.43
2018-09-10T01:26:16.483Z,16.39
2018-09-10T01:27:17.173Z,16.29
2018-09-10T01:28:17.584Z,16.32
2018-09-10T01:29:17.719Z,16.26
2018-09-10T01:30:18.987Z,16.32
2018-09-10T01:31:19.113Z,16.28
2018-09-10T01:32:19.819Z,16.29
2018-09-10T01:33:20.509Z,16.26
2018-09-10T01:34:20.923Z,16.32
2018-09-10T01:35:21.052Z,16.37
2018-09-10T01:36:21.741Z,16.28
2018-09-10T01:37:22.162Z,16.28
2018-09-10T01:38:23.131Z,16.18
2018-09-10T01:39:23.541Z,16.22
2018-09-10T01:40:24.804Z,16.24
2018-09-10T01:41:24.942Z,16.24
2018-09-10T01:42:25.077Z,16.29
2018-09-10T01:43:25.215Z,16.34
2018-09-10T01:44:25.957Z,16.32
2018-09-10T01:45:26.374Z,16.31
2018-09-10T01:46:26.779Z,16.36
2018-09-10T01:47:27.745Z,16.26
2018-09-10T01:48:27.884Z,16.24
2018-09-10T01:49:28.571Z,16.31
2018-09-10T01:50:28.552Z,16.36
2018-09-10T01:51:28.964Z,16.31
2018-09-10T01:52:29.373Z,16.34
2018-09-10T01:54:01.902Z,16.29
2018-09-10T01:54:30.589Z,16.36
2018-09-10T01:55:31.000Z,16.29
2018-09-10T01:56:31.138Z,16.32
2018-09-10T01:57:32.113Z,16.31
2018-09-10T01:58:32.804Z,16.31
2018-09-10T01:59:33.218Z,16.29
2018-09-10T02:00:33.483Z,16.24
2018-09-10T02:01:33.894Z,16.28
2018-09-10T02:02:34.035Z,16.32
2018-09-10T02:03:34.162Z,16.22
2018-09-10T02:04:34.297Z,16.25
2018-09-10T02:05:34.710Z,16.17
2018-09-10T02:06:35.123Z,16.21
2018-09-10T02:07:35.809Z,16.16
2018-09-10T02:08:36.498Z,16.22
2018-09-10T02:09:36.633Z,16.16
2018-09-10T02:10:37.897Z,16.06
2018-09-10T02:11:38.310Z,16.17
2018-09-10T02:12:38.443Z,16.09
2018-09-10T02:13:38.580Z,16
2018-09-10T02:14:38.714Z,15.98
2018-09-10T02:15:39.126Z,15.96
2018-09-10T02:16:39.538Z,15.91
2018-09-10T02:17:40.229Z,15.96
2018-09-10T02:18:40.645Z,15.96
2018-09-10T02:19:41.054Z,16
2018-09-10T02:20:42.202Z,15.96
2018-09-10T02:21:42.612Z,15.98
2018-09-10T02:22:43.028Z,15.98
2018-09-10T02:23:44.223Z,15.88
2018-09-10T02:24:44.094Z,15.96
2018-09-10T02:25:44.507Z,15.91
2018-09-10T02:26:44.922Z,15.91
2018-09-10T02:27:45.764Z,15.91
2018-09-10T02:28:45.884Z,15.9
2018-09-10T02:29:46.020Z,15.9
2018-09-10T02:30:47.115Z,15.91
2018-09-10T02:31:47.531Z,15.84
2018-09-10T02:32:48.218Z,15.87
2018-09-10T02:33:48.366Z,15.88
2018-09-10T02:34:49.059Z,15.92
2018-09-10T02:35:49.193Z,15.83
2018-09-10T02:36:49.605Z,15.9
2018-09-10T02:37:50.021Z,15.96
2018-09-10T02:38:50.153Z,15.84
2018-09-10T02:39:51.405Z,15.88
2018-09-10T02:40:51.664Z,15.91
2018-09-10T02:41:51.798Z,15.9
2018-09-10T02:42:51.932Z,15.84
2018-09-10T02:43:52.622Z,15.92
2018-09-10T02:44:53.033Z,15.81
2018-09-10T02:45:53.456Z,15.73
2018-09-10T02:46:53.862Z,15.83
2018-09-10T02:47:54.832Z,15.8
2018-09-10T02:48:54.966Z,15.84
2018-09-10T02:49:55.657Z,15.91
2018-09-10T02:50:56.638Z,15.85
2018-09-10T02:51:57.329Z,15.87
2018-09-10T02:52:57.744Z,15.91
2018-09-10T02:53:58.156Z,15.92
2018-09-10T02:54:58.588Z,15.98
2018-09-10T02:55:58.925Z,16
2018-09-10T02:56:59.893Z,16
2018-09-10T02:58:00.862Z,15.92
2018-09-10T02:59:01.283Z,15.94
2018-09-10T03:00:02.279Z,15.9
2018-09-10T03:01:02.315Z,15.87
2018-09-10T03:02:02.724Z,15.96
2018-09-10T03:03:03.433Z,16.05
2018-09-10T03:04:04.105Z,16.06
2018-09-10T03:05:04.239Z,16.06
2018-09-10T03:06:04.655Z,16.09
2018-09-10T03:07:05.341Z,16.02
2018-09-10T03:08:06.033Z,15.88
2018-09-10T03:09:06.166Z,16.06
2018-09-10T03:10:06.855Z,15.98
2018-09-10T03:11:07.954Z,15.9
2018-09-10T03:12:08.365Z,15.99
2018-09-10T03:13:09.066Z,16
2018-09-10T03:14:09.196Z,16
2018-09-10T03:15:09.606Z,15.94
2018-09-10T03:16:10.056Z,15.96
2018-09-10T03:17:10.469Z,15.91
2018-09-10T03:18:11.157Z,16
2018-09-10T03:19:11.569Z,15.96
2018-09-10T03:20:11.981Z,16
2018-09-10T03:21:12.243Z,15.96
2018-09-10T03:22:12.934Z,16
2018-09-10T03:23:14.178Z,15.98
2018-09-10T03:24:15.240Z,16.06
2018-09-10T03:25:14.964Z,16.06
2018-09-10T03:26:15.099Z,16.09
2018-09-10T03:27:15.510Z,16.06
2018-09-10T03:28:15.647Z,16
2018-09-10T03:29:16.060Z,15.96
2018-09-10T03:30:16.764Z,15.94
2018-09-10T03:31:17.152Z,15.91
2018-09-10T03:32:17.417Z,15.96
2018-09-10T03:33:17.389Z,15.9
2018-09-10T03:34:17.797Z,15.85
2018-09-10T03:35:17.933Z,15.84
2018-09-10T03:36:18.899Z,15.81
2018-09-10T03:37:19.590Z,15.84
2018-09-10T03:38:20.282Z,15.75
2018-09-10T03:39:20.972Z,15.76
2018-09-10T03:40:21.107Z,15.75
2018-09-10T03:41:21.644Z,15.76
2018-09-10T03:42:22.612Z,15.78
2018-09-10T03:43:22.748Z,15.72
2018-09-10T03:44:23.440Z,15.78
2018-09-10T03:45:23.850Z,15.69
2018-09-10T03:46:24.268Z,15.75
2018-09-10T03:47:25.152Z,15.75
2018-09-10T03:48:25.368Z,15.81
2018-09-10T03:49:25.787Z,15.85
2018-09-10T03:50:26.195Z,15.85
2018-09-10T03:51:27.010Z,15.84
2018-09-10T03:52:27.422Z,15.9
2018-09-10T03:53:28.114Z,15.9
2018-09-10T03:54:29.080Z,15.85
2018-09-10T03:55:29.770Z,15.87
2018-09-10T03:56:44.833Z,15.78
2018-09-10T03:57:30.535Z,15.83
2018-09-10T03:58:31.226Z,15.75
2018-09-10T03:59:32.193Z,15.7
2018-09-10T04:00:32.607Z,15.76
2018-09-10T04:01:33.429Z,15.76
2018-09-10T04:02:34.118Z,15.83
2018-09-10T04:03:34.533Z,15.85
2018-09-10T04:04:35.230Z,15.87
2018-09-10T04:05:36.198Z,15.9
2018-09-10T04:06:36.390Z,15.83
2018-09-10T04:07:36.361Z,15.72
2018-09-10T04:08:36.776Z,15.72
2018-09-10T04:09:37.482Z,15.85
2018-09-10T04:10:38.173Z,15.73
2018-09-10T04:11:38.436Z,15.73
2018-09-10T04:12:39.139Z,15.73
2018-09-10T04:13:39.553Z,15.81
2018-09-10T04:14:40.246Z,15.94
2018-09-10T04:15:40.949Z,15.94
2018-09-10T04:16:41.084Z,16.02
2018-09-10T04:17:41.780Z,16.1
2018-09-10T04:18:41.918Z,16.06
2018-09-10T04:19:42.888Z,16.21
2018-09-10T04:20:43.133Z,16.24
2018-09-10T04:21:43.396Z,16.32
2018-09-10T04:22:43.534Z,16.49
2018-09-10T04:23:43.671Z,16.47
2018-09-10T04:24:44.084Z,16.41
2018-09-10T04:25:44.052Z,16.39
2018-09-10T04:26:44.467Z,16.47
2018-09-10T04:27:44.880Z,16.39
2018-09-10T04:28:45.305Z,16.36
2018-09-10T04:29:46.022Z,16.26
2018-09-10T04:30:46.988Z,16.22
2018-09-10T04:31:46.972Z,16.18
2018-09-10T04:32:47.944Z,16.16
2018-09-10T04:33:48.193Z,16.16
2018-09-10T04:34:47.881Z,15.91
2018-09-10T04:35:48.295Z,15.98
2018-09-10T04:36:49.261Z,15.98
2018-09-10T04:37:49.231Z,15.96
2018-09-10T04:38:49.647Z,15.96
2018-09-10T04:39:50.062Z,15.94
2018-09-10T04:40:50.754Z,16.02
2018-09-10T04:41:50.741Z,15.98
2018-09-10T04:42:50.877Z,16.05
2018-09-10T04:43:51.292Z,15.99
2018-09-10T04:44:51.995Z,15.91
2018-09-10T04:45:52.960Z,15.96
2018-09-10T04:46:53.376Z,15.98
2018-09-10T04:47:54.348Z,15.94
2018-09-10T04:48:54.316Z,15.98
2018-09-10T04:49:55.564Z,15.91
2018-09-10T04:50:55.988Z,15.96
2018-09-10T04:51:56.535Z,15.92
2018-09-10T04:52:56.672Z,15.94
2018-09-10T04:53:57.089Z,15.98
2018-09-10T04:54:57.785Z,15.91
2018-09-10T04:55:58.214Z,15.98
2018-09-10T04:56:58.629Z,15.91
2018-09-10T04:57:59.362Z,15.98
2018-09-10T04:58:59.782Z,15.84
2018-09-10T05:00:00.754Z,15.87
2018-09-10T05:01:01.180Z,15.85
2018-09-10T05:02:01.171Z,15.83
2018-09-10T05:03:01.590Z,15.81
2018-09-10T05:04:02.005Z,15.76
2018-09-10T05:05:02.421Z,15.8
2018-09-10T05:06:03.114Z,15.81
2018-09-10T05:07:03.810Z,15.78
2018-09-10T05:08:04.223Z,15.78
2018-09-10T05:09:04.643Z,15.78
2018-09-10T05:10:05.410Z,15.75
2018-09-10T05:11:05.655Z,15.8
2018-09-10T05:12:06.637Z,15.78
2018-09-10T05:13:07.338Z,15.76
2018-09-10T05:14:07.763Z,15.78
2018-09-10T05:15:08.447Z,15.81
2018-09-10T05:16:09.143Z,15.81
2018-09-10T05:17:09.675Z,15.72
2018-09-10T05:18:09.379Z,15.84
2018-09-10T05:19:09.793Z,15.83
2018-09-10T05:20:10.208Z,15.78
2018-09-10T05:21:10.904Z,15.75
2018-09-10T05:22:11.592Z,15.83
2018-09-10T05:23:12.009Z,15.84
2018-09-10T05:24:12.707Z,15.83
2018-09-10T05:25:13.121Z,15.85
2018-09-10T05:26:13.816Z,15.88
2018-09-10T05:27:14.233Z,15.94
2018-09-10T05:28:15.419Z,15.96
2018-09-10T05:29:14.988Z,15.98
2018-09-10T05:30:15.968Z,15.99
2018-09-10T05:31:16.676Z,15.99
2018-09-10T05:32:16.943Z,15.99
2018-09-10T05:33:18.194Z,15.94
2018-09-10T05:34:18.614Z,16.02
2018-09-10T05:35:19.309Z,15.98
2018-09-10T05:36:20.005Z,16.06
2018-09-10T05:37:20.420Z,16.06
2018-09-10T05:38:20.837Z,16.16
2018-09-10T05:39:21.260Z,16.13
2018-09-10T05:40:21.951Z,16.16
2018-09-10T05:41:23.207Z,16.18
2018-09-10T05:42:24.028Z,16.22
2018-09-10T05:43:24.464Z,16.28
2018-09-10T05:44:24.884Z,16.34
2018-09-10T05:45:25.301Z,16.26
2018-09-10T05:46:25.720Z,16.25
2018-09-10T05:47:26.477Z,16.31
2018-09-10T05:48:27.504Z,16.37
2018-09-10T05:49:28.199Z,16.32
2018-09-10T05:50:28.899Z,16.37
2018-09-10T05:51:29.318Z,16.39
2018-09-10T05:52:30.307Z,16.36
2018-09-10T05:53:31.003Z,16.46
2018-09-10T05:54:31.426Z,16.47
2018-09-10T05:55:32.632Z,16.57
2018-09-10T05:56:32.047Z,16.58
2018-09-10T05:57:33.021Z,16.61
2018-09-10T05:58:33.993Z,16.55
2018-09-10T05:59:34.135Z,16.59
2018-09-10T06:00:35.112Z,16.55
2018-09-10T06:01:35.253Z,16.79
2018-09-10T06:02:36.242Z,16.79
2018-09-10T06:03:37.217Z,16.91
2018-09-10T06:04:37.638Z,16.91
2018-09-10T06:05:38.061Z,17.01
2018-09-10T06:06:38.760Z,16.99
2018-09-10T06:07:39.178Z,17.07
2018-09-10T06:08:39.935Z,17.22
2018-09-10T06:09:40.272Z,17.22
2018-09-10T06:10:41.146Z,17.32
2018-09-10T06:11:40.786Z,17.31
2018-09-10T06:12:40.611Z,17.34
2018-09-10T06:13:41.310Z,17.42
2018-09-10T06:14:41.731Z,17.49
2018-09-10T06:15:42.708Z,17.68
2018-09-10T06:16:43.158Z,17.86
2018-09-10T06:17:44.265Z,18
2018-09-10T06:18:44.407Z,18.43
2018-09-10T06:19:44.830Z,18.94
2018-09-10T06:20:45.257Z,19.48
2018-09-10T06:21:45.965Z,19.96
2018-09-10T06:22:46.239Z,20.21
2018-09-10T06:23:46.662Z,20.6
2018-09-10T06:24:47.084Z,20.89
2018-09-10T06:25:47.509Z,21.11
2018-09-10T06:26:48.221Z,21.33
2018-09-10T06:27:48.641Z,21.59
2018-09-10T06:28:48.791Z,21.69
2018-09-10T06:29:49.501Z,21.96
2018-09-10T06:30:49.924Z,21.92
2018-09-10T06:33:50.745Z,22.62
2018-09-10T06:34:51.166Z,22.84
2018-09-10T06:35:51.309Z,22.92
2018-09-10T06:36:52.006Z,22.8
2018-09-10T06:37:52.428Z,22.62
2018-09-10T06:38:53.405Z,22.74
2018-09-10T06:39:53.549Z,22.93
2018-09-10T06:40:53.690Z,23.08
2018-09-10T06:41:54.108Z,23.26
2018-09-10T06:42:54.652Z,23.26
2018-09-10T06:43:55.073Z,23.25
2018-09-10T06:44:55.496Z,23.23
2018-09-10T06:45:55.639Z,23.06
2018-09-10T06:46:55.781Z,23.1
2018-09-10T06:47:56.201Z,22.91
2018-09-10T06:48:57.181Z,22.93
2018-09-10T06:49:57.321Z,22.81
2018-09-10T06:50:57.465Z,22.77
2018-09-10T06:51:58.161Z,22.77
2018-09-10T06:52:58.709Z,22.71
2018-09-10T06:53:58.852Z,22.67
2018-09-10T06:54:59.550Z,22.55
2018-09-10T06:56:00.245Z,22.59
2018-09-10T06:57:00.384Z,22.53
2018-09-10T06:58:00.815Z,22.46
2018-09-10T06:59:01.513Z,22.49
2018-09-10T07:00:01.939Z,22.46
2018-09-10T07:01:03.190Z,22.15
2018-09-10T07:02:04.164Z,21.83
2018-09-10T07:03:04.155Z,21.89
2018-09-10T07:04:04.573Z,21.91
2018-09-10T07:05:05.549Z,21.89
2018-09-10T07:06:05.530Z,21.92
2018-09-10T07:07:05.669Z,22
2018-09-10T07:08:06.410Z,22.03
2018-09-10T07:09:06.833Z,22.36
2018-09-10T07:10:07.257Z,22.56
2018-09-10T07:11:07.957Z,22.61
2018-09-10T07:12:08.656Z,22.7
2018-09-10T07:13:09.708Z,22.77
2018-09-10T07:14:10.493Z,22.74
2018-09-10T07:15:10.915Z,22.74
2018-09-10T07:16:11.616Z,22.84
2018-09-10T07:17:12.038Z,22.92
2018-09-10T07:18:13.030Z,22.91
2018-09-10T07:19:14.007Z,22.89
2018-09-10T07:20:14.701Z,22.95
2018-09-10T07:21:15.118Z,22.96
2018-09-10T07:22:15.540Z,22.91
2018-09-10T07:23:16.090Z,22.89
2018-09-10T07:24:17.057Z,22.95
2018-09-10T07:25:17.198Z,22.92
2018-09-10T07:26:17.894Z,22.93
2018-09-10T07:27:18.591Z,22.92
2018-09-10T07:28:19.014Z,22.81
2018-09-10T07:29:19.436Z,22.58
2018-09-10T07:30:20.137Z,22.53
2018-09-10T07:31:20.279Z,22.3
2018-09-10T07:32:20.698Z,22.22
2018-09-10T07:33:21.243Z,22.26
2018-09-10T07:34:22.276Z,22.3
2018-09-10T07:35:21.699Z,22.28
2018-09-10T07:36:22.401Z,22.28
2018-09-10T07:37:22.821Z,22.26
2018-09-10T07:38:23.797Z,22.15
2018-09-10T07:39:24.218Z,22.12
2018-09-10T07:40:24.915Z,22.08
2018-09-10T07:41:25.615Z,22.07
2018-09-10T07:42:26.311Z,22.16
2018-09-10T07:43:27.707Z,22.07
2018-09-10T07:44:28.111Z,22.15
2018-09-10T07:45:29.093Z,22.07
2018-09-10T07:46:29.235Z,22.08
2018-09-10T07:47:29.933Z,22.04
2018-09-10T07:48:30.075Z,22.04
2018-09-10T07:49:30.782Z,22.18
2018-09-10T07:50:31.204Z,22.07
2018-09-10T07:51:31.632Z,22.07
2018-09-10T07:52:32.329Z,22.07
2018-09-10T07:53:33.320Z,22.06
2018-09-10T07:54:34.874Z,21.91
2018-09-10T07:55:34.332Z,21.89
2018-09-10T07:56:34.760Z,21.83
2018-09-10T07:57:34.898Z,21.89
2018-09-10T07:58:35.594Z,21.89
2018-09-10T07:59:36.288Z,21.89
2018-09-10T08:00:36.431Z,21.91
2018-09-10T08:01:37.128Z,21.88
2018-09-10T08:02:37.553Z,21.97
2018-09-10T08:03:37.645Z,21.91
2018-09-10T08:04:37.784Z,21.84
2018-09-10T08:05:37.926Z,21.89
2018-09-10T08:06:38.619Z,21.94
2018-09-10T08:07:38.765Z,21.97
2018-09-10T08:08:39.744Z,21.89
2018-09-10T08:09:40.815Z,21.84
2018-09-10T08:10:40.666Z,21.97
2018-09-10T08:11:40.808Z,22.06
2018-09-10T08:12:41.505Z,22.04
2018-09-10T08:13:42.048Z,22.08
2018-09-10T08:14:42.468Z,22.08
2018-09-10T08:15:43.165Z,21.99
2018-09-10T08:16:44.020Z,21.84
2018-09-10T08:17:43.724Z,22.01
2018-09-10T08:18:44.416Z,21.92
2018-09-10T08:19:44.839Z,21.96
2018-09-10T08:20:45.257Z,21.89
2018-09-10T08:21:45.398Z,21.78
2018-09-10T08:22:45.816Z,21.72
2018-09-10T08:23:46.527Z,21.75
2018-09-10T08:24:46.947Z,21.69
2018-09-10T08:25:47.089Z,21.74
2018-09-10T08:26:47.512Z,21.77
2018-09-10T08:27:47.928Z,21.63
2018-09-10T08:28:48.903Z,21.72
2018-09-10T08:29:49.324Z,21.66
2018-09-10T08:30:50.023Z,21.66
2018-09-10T08:31:50.164Z,21.66
2018-09-10T08:32:50.305Z,21.48
2018-09-10T08:33:51.019Z,21.54
2018-09-10T08:34:51.712Z,21.58
2018-09-10T08:35:52.406Z,21.47
2018-09-10T08:36:52.546Z,21.56
2018-09-10T08:37:52.689Z,21.6
2018-09-10T08:38:53.666Z,21.59
2018-09-10T08:39:53.804Z,21.66
2018-09-10T08:40:53.948Z,21.69
2018-09-10T08:41:54.088Z,21.66
2018-09-10T08:42:54.682Z,21.7
2018-09-10T08:43:54.596Z,21.74
2018-09-10T08:44:55.015Z,21.78
2018-09-10T08:45:55.990Z,21.83
2018-09-10T08:46:56.688Z,21.89
2018-09-10T08:47:56.833Z,21.85
2018-09-10T08:48:57.254Z,22.04
2018-09-10T08:49:57.395Z,22.1
2018-09-10T08:50:58.647Z,22.19
2018-09-10T08:51:59.071Z,22.1
2018-09-10T08:52:59.768Z,22.25
2018-09-10T08:54:01.476Z,22.15
2018-09-10T08:55:02.062Z,22.23
2018-09-10T08:56:02.884Z,22.3
2018-09-10T08:57:01.499Z,22.23
2018-09-10T08:58:02.196Z,22.28
2018-09-10T08:59:02.893Z,22.36
2018-09-10T09:00:03.981Z,22.37
2018-09-10T09:01:03.975Z,22.47
2018-09-10T09:02:04.822Z,22.55
2018-09-10T09:03:05.249Z,22.62
2018-09-10T09:04:05.514Z,22.63
2018-09-10T09:05:05.934Z,22.63
2018-09-10T09:06:06.155Z,22.68
2018-09-10T09:07:06.492Z,22.77
2018-09-10T09:08:07.112Z,22.76
2018-09-10T09:09:07.054Z,22.74
2018-09-10T09:10:07.473Z,22.59
2018-09-10T09:11:07.891Z,22.55
2018-09-10T09:12:08.082Z,22.59
2018-09-10T09:13:08.835Z,22.62
2018-09-10T09:14:09.397Z,22.76
2018-09-10T09:15:09.539Z,23.06
2018-09-10T09:16:09.959Z,23.59
2018-09-10T09:17:10.109Z,23.67
2018-09-10T09:18:10.806Z,23.77
2018-09-10T09:19:11.522Z,24.03
2018-09-10T09:20:11.947Z,24.85
2018-09-10T09:21:12.648Z,25.76
2018-09-10T09:22:13.555Z,26.45
2018-09-10T09:23:13.436Z,26.98
2018-09-10T09:24:13.360Z,26.98
2018-09-10T09:25:13.972Z,26.7
2018-09-10T09:26:13.978Z,26.3
2018-09-10T09:27:15.031Z,26.01
2018-09-10T09:28:14.279Z,25.8
2018-09-10T09:29:14.701Z,25.66
2018-09-10T09:30:16.110Z,25.56
2018-09-10T09:31:15.787Z,25.52
2018-09-10T09:32:15.928Z,25.36
2018-09-10T09:33:16.347Z,25.29
2018-09-10T09:34:17.618Z,25.25
2018-09-10T09:35:18.642Z,25.18
2018-09-10T09:36:19.133Z,25.11
2018-09-10T09:37:19.617Z,25.14
2018-09-10T09:38:20.038Z,25.15
2018-09-10T09:39:20.775Z,25.01
2018-09-10T09:40:21.483Z,25.01
2018-09-10T09:41:21.855Z,25
2018-09-10T09:42:22.568Z,25.09
2018-09-10T09:43:23.299Z,25.15
2018-09-10T09:44:24.436Z,25.07
2018-09-10T09:45:24.900Z,25.31
2018-09-10T09:46:24.388Z,25.54
2018-09-10T09:47:25.173Z,26.15
2018-09-10T09:48:25.439Z,26.45
2018-09-10T09:49:26.147Z,26.11
2018-09-10T09:50:26.566Z,25.85
2018-09-10T09:51:27.297Z,25.52
2018-09-10T09:52:27.721Z,25.41
2018-09-10T09:53:27.865Z,25.31
2018-09-10T09:54:29.134Z,24.99
2018-09-10T09:55:29.956Z,25.01
2018-09-10T09:56:31.477Z,25.12
2018-09-10T09:57:30.186Z,25.03
2018-09-10T09:58:31.165Z,25.06
2018-09-10T09:59:31.587Z,25.01
2018-09-10T10:00:32.014Z,25.19
2018-09-10T10:01:32.158Z,25.25
2018-09-10T10:02:32.858Z,25.26
2018-09-10T10:03:33.278Z,25.29
2018-09-10T10:04:34.619Z,25.54
2018-09-10T10:05:34.722Z,26.18
2018-09-10T10:06:35.144Z,26.92
2018-09-10T10:07:35.847Z,27.4
2018-09-10T10:08:37.037Z,27.79
2018-09-10T10:09:36.185Z,28.08
2018-09-10T10:10:36.611Z,28.52
2018-09-10T10:11:37.469Z,28.89
2018-09-10T10:12:37.330Z,29.09
2018-09-10T10:13:37.751Z,29.37
2018-09-10T10:14:38.479Z,29.65
2018-09-10T10:15:39.176Z,29.99
2018-09-10T10:16:39.326Z,30.23
2018-09-10T10:17:40.034Z,30.7
2018-09-10T10:18:40.461Z,30.89
2018-09-10T10:19:41.166Z,31.1
2018-09-10T10:20:41.592Z,31.35
2018-09-10T10:21:42.576Z,31.44
2018-09-10T10:22:43.283Z,31.64
2018-09-10T10:23:43.431Z,31.87
2018-09-10T10:24:44.434Z,32.17
2018-09-10T10:25:45.417Z,32.31
2018-09-10T10:26:46.413Z,32.41
2018-09-10T10:27:46.841Z,32.53
2018-09-10T10:28:48.562Z,32.64
2018-09-10T10:29:48.424Z,32.72
2018-09-10T10:30:49.133Z,32.88
2018-09-10T10:31:49.562Z,32.9
2018-09-10T10:32:50.337Z,32.9
2018-09-10T10:33:49.785Z,32.95
2018-09-10T10:34:51.415Z,32.95
2018-09-10T10:35:52.078Z,33.05
2018-09-10T10:36:52.234Z,32.95
2018-09-10T10:37:52.662Z,32.81
2018-09-10T10:38:53.373Z,32.71
2018-09-10T10:39:53.528Z,32.41
2018-09-10T10:40:53.965Z,32.42
2018-09-10T10:41:55.231Z,32.44
2018-09-10T10:42:56.729Z,32.51
2018-09-10T10:43:56.094Z,32.61
2018-09-10T10:44:56.930Z,32.68
2018-09-10T10:45:57.639Z,32.39
2018-09-10T10:46:58.352Z,32.51
2018-09-10T10:47:58.507Z,32.66
2018-09-10T10:49:01.489Z,32.71
2018-09-10T10:50:00.181Z,32.64
2018-09-10T10:51:00.965Z,32.59
2018-09-10T10:52:00.658Z,32.46
2018-09-10T10:53:01.095Z,32.42
2018-09-10T10:54:01.879Z,32.56
2018-09-10T10:55:02.013Z,32.63
2018-09-10T10:56:02.161Z,32.75
2018-09-10T10:57:02.590Z,32.72
2018-09-10T10:58:03.577Z,32.54
2018-09-10T10:59:04.012Z,32.34
2018-09-10T11:00:06.752Z,32
2018-09-10T11:01:05.464Z,31.9
2018-09-10T11:02:07.788Z,31.81
2018-09-10T11:03:07.594Z,31.98
2018-09-10T11:04:08.098Z,31.92
2018-09-10T11:05:08.523Z,31.98
2018-09-10T11:06:08.964Z,31.95
2018-09-10T11:07:09.666Z,32.07
2018-09-10T11:08:10.162Z,32.04
2018-09-10T11:09:11.743Z,32.02
2018-09-10T11:10:11.392Z,32.02
2018-09-10T11:11:11.547Z,32.09
2018-09-10T11:12:12.437Z,31.98
2018-09-10T11:13:12.865Z,31.85
2018-09-10T11:14:13.297Z,31.7
2018-09-10T11:15:14.685Z,31.73
2018-09-10T11:16:13.901Z,31.73
2018-09-10T11:17:14.334Z,31.69
2018-09-10T11:18:14.765Z,31.74
2018-09-10T11:19:15.478Z,31.54
2018-09-10T11:20:16.188Z,31.52
2018-09-10T11:21:16.897Z,31.54
2018-09-10T11:22:18.282Z,31.52
2018-09-10T11:23:17.508Z,31.52
2018-09-10T11:24:17.944Z,31.44
2018-09-10T11:25:18.942Z,31.5
2018-09-10T11:26:19.651Z,31.51
2018-09-10T11:27:20.095Z,31.26
2018-09-10T11:28:20.528Z,31.13
2018-09-10T11:29:20.960Z,31.04
2018-09-10T11:30:21.597Z,31.02
2018-09-10T11:31:21.756Z,30.88
2018-09-10T11:32:22.187Z,30.81
2018-09-10T11:33:22.619Z,30.92
2018-09-10T11:34:23.051Z,30.73
2018-09-10T11:35:23.053Z,30.76
2018-09-10T11:36:23.483Z,30.74
2018-09-10T11:37:24.194Z,30.73
2018-09-10T11:38:24.904Z,30.73
2018-09-10T11:39:25.612Z,30.59
2018-09-10T11:40:25.764Z,30.63
2018-09-10T11:41:26.200Z,30.54
2018-09-10T11:42:27.451Z,30.4
2018-09-10T11:43:29.365Z,30.29
2018-09-10T11:44:30.019Z,30.33
2018-09-10T11:45:27.749Z,30.44
2018-09-10T11:46:28.240Z,30.44
2018-09-10T11:47:28.306Z,30.2
2018-09-10T11:48:28.738Z,30.2
2018-09-10T11:49:29.453Z,30.21
2018-09-10T11:50:29.602Z,30.11
2018-09-10T11:51:30.037Z,29.9
2018-09-10T11:52:30.792Z,29.92
2018-09-10T11:53:31.223Z,29.89
2018-09-10T11:54:31.654Z,29.83
2018-09-10T11:55:32.088Z,29.83
2018-09-10T11:56:32.270Z,29.87
2018-09-10T11:57:32.256Z,29.87
2018-09-10T11:58:32.689Z,29.87
2018-09-10T11:59:33.676Z,29.94
2018-09-10T12:00:33.829Z,29.94
2018-09-10T12:01:34.548Z,29.87
2018-09-10T12:02:34.614Z,29.9
2018-09-10T12:03:35.046Z,29.64
2018-09-10T12:04:38.105Z,29.55
2018-09-10T12:05:36.337Z,29.57
2018-09-10T12:06:36.912Z,29.61
2018-09-10T12:07:40.208Z,29.61
2018-09-10T12:08:38.477Z,29.61
2018-09-10T12:09:39.180Z,29.62
2018-09-10T12:10:39.331Z,29.77
2018-09-10T12:11:40.043Z,29.71
2018-09-10T12:12:40.366Z,29.71
2018-09-10T12:13:41.528Z,29.86
2018-09-10T12:14:41.472Z,29.84
2018-09-10T12:15:42.473Z,29.77
2018-09-10T12:16:43.553Z,29.57
2018-09-10T12:17:43.031Z,29.44
2018-09-10T12:18:43.457Z,29.21
2018-09-10T12:19:43.608Z,29.22
2018-09-10T12:20:44.316Z,29.07
2018-09-10T12:21:44.748Z,29.09
2018-09-10T12:22:45.174Z,29.02
2018-09-10T12:23:45.326Z,28.92
2018-09-10T12:24:45.754Z,28.7
2018-09-10T12:25:46.750Z,28.78
2018-09-10T12:26:47.677Z,28.72
2018-09-10T12:27:48.383Z,28.67
2018-09-10T12:28:49.088Z,28.53
2018-09-10T12:29:49.520Z,28.41
2018-09-10T12:30:49.948Z,28.37
2018-09-10T12:31:50.374Z,28.4
2018-09-10T12:32:51.077Z,28.34
2018-09-10T12:33:51.223Z,28.4
2018-09-10T12:34:51.938Z,28.37
2018-09-10T12:35:52.451Z,28.59
2018-09-10T12:36:52.933Z,28.52
2018-09-10T12:37:52.637Z,28.46
2018-09-10T12:38:53.063Z,28.5
2018-09-10T12:39:53.767Z,28.47
2018-09-10T12:40:54.195Z,28.59
2018-09-10T12:41:55.180Z,28.6
2018-09-10T12:42:55.329Z,28.65
2018-09-10T12:43:56.036Z,28.72
2018-09-10T12:44:56.460Z,28.65
2018-09-10T12:45:57.290Z,28.78
2018-09-10T12:46:57.999Z,28.74
2018-09-10T12:47:58.432Z,28.89
2018-09-10T12:48:58.582Z,28.92
2018-09-10T12:49:59.004Z,28.86
2018-09-10T12:50:59.431Z,28.78
2018-09-10T12:51:59.581Z,28.82
2018-09-10T12:53:00.282Z,28.78
2018-09-10T12:54:00.988Z,28.94
2018-09-10T12:55:01.690Z,28.82
2018-09-10T12:56:02.690Z,28.8
2018-09-10T12:57:02.841Z,28.71
2018-09-10T12:58:03.274Z,28.7
2018-09-10T12:59:04.257Z,28.68
2018-09-10T13:00:03.959Z,28.74
2018-09-10T13:01:04.735Z,28.78
2018-09-10T13:02:04.291Z,28.8
2018-09-10T13:03:04.756Z,28.67
2018-09-10T13:04:04.784Z,28.62